sensor_id;sensor_type;location;lat;lon;timestamp;temperature;humidity
60909;DHT22;46780;48.128;-1.704;2023-07-29T00:01:04;18.80;99.90
60909;DHT22;46780;48.128;-1.704;2023-07-29T00:03:31;18.70;99.90
60909;DHT22;46780;48.128;-1.704;2023-07-29T00:05:57;18.70;99.90
60909;DHT22;46780;48.128;-1.704;2023-07-29T00:08:25;18.80;99.90
60909;DHT22;46780;48.128;-1.704;2023-07-29T00:10:52;18.70;99.90
60909;DHT22;46780;48.128;-1.704;2023-07-29T00:13:18;18.80;99.90
60909;DHT22;46780;48.128;-1.704;2023-07-29T00:15:44;18.80;99.90
60909;DHT22;46780;48.128;-1.704;2023-07-29T00:18:11;18.80;99.90
60909;DHT22;46780;48.128;-1.704;2023-07-29T00:20:37;18.90;99.90
60909;DHT22;46780;48.128;-1.704;2023-07-29T00:23:04;18.90;99.90
60909;DHT22;46780;48.128;-1.704;2023-07-29T00:25:32;18.90;99.90
60909;DHT22;46780;48.128;-1.704;2023-07-29T00:27:58;18.90;99.90
60909;DHT22;46780;48.128;-1.704;2023-07-29T00:30:25;18.90;99.90
60909;DHT22;46780;48.128;-1.704;2023-07-29T00:32:51;18.90;99.90
60909;DHT22;46780;48.128;-1.704;2023-07-29T00:35:18;18.90;99.90
60909;DHT22;46780;48.128;-1.704;2023-07-29T00:37:44;18.90;99.90
60909;DHT22;46780;48.128;-1.704;2023-07-29T00:40:15;18.90;99.90
60909;DHT22;46780;48.128;-1.704;2023-07-29T00:42:43;18.90;99.90
60909;DHT22;46780;48.128;-1.704;2023-07-29T00:45:10;18.90;99.90
60909;DHT22;46780;48.128;-1.704;2023-07-29T00:47:36;18.90;99.90
60909;DHT22;46780;48.128;-1.704;2023-07-29T00:50:04;18.80;99.90
60909;DHT22;46780;48.128;-1.704;2023-07-29T00:52:30;18.90;99.90
60909;DHT22;46780;48.128;-1.704;2023-07-29T00:54:57;18.90;99.90
60909;DHT22;46780;48.128;-1.704;2023-07-29T00:57:24;18.90;99.90
60909;DHT22;46780;48.128;-1.704;2023-07-29T00:59:52;18.90;99.90
60909;DHT22;46780;48.128;-1.704;2023-07-29T01:02:20;18.90;99.90
60909;DHT22;46780;48.128;-1.704;2023-07-29T01:04:52;18.90;99.90
60909;DHT22;46780;48.128;-1.704;2023-07-29T01:07:23;18.90;99.90
60909;DHT22;46780;48.128;-1.704;2023-07-29T01:09:56;18.90;99.90
60909;DHT22;46780;48.128;-1.704;2023-07-29T01:12:33;18.90;99.90
60909;DHT22;46780;48.128;-1.704;2023-07-29T01:15:09;18.90;99.90
60909;DHT22;46780;48.128;-1.704;2023-07-29T01:17:43;18.90;99.90
60909;DHT22;46780;48.128;-1.704;2023-07-29T01:20:15;18.90;99.90
60909;DHT22;46780;48.128;-1.704;2023-07-29T01:22:42;18.90;99.90
60909;DHT22;46780;48.128;-1.704;2023-07-29T01:25:10;18.90;99.90
60909;DHT22;46780;48.128;-1.704;2023-07-29T01:27:36;18.90;99.90
60909;DHT22;46780;48.128;-1.704;2023-07-29T01:30:04;18.90;99.90
60909;DHT22;46780;48.128;-1.704;2023-07-29T01:32:35;19.00;99.90
60909;DHT22;46780;48.128;-1.704;2023-07-29T01:35:06;19.00;99.90
60909;DHT22;46780;48.128;-1.704;2023-07-29T01:37:37;19.00;99.90
60909;DHT22;46780;48.128;-1.704;2023-07-29T01:40:06;19.00;99.90
60909;DHT22;46780;48.128;-1.704;2023-07-29T01:42:34;19.00;99.90
60909;DHT22;46780;48.128;-1.704;2023-07-29T01:45:01;19.00;99.90
60909;DHT22;46780;48.128;-1.704;2023-07-29T01:47:27;19.00;99.90
60909;DHT22;46780;48.128;-1.704;2023-07-29T01:49:54;19.00;99.90
60909;DHT22;46780;48.128;-1.704;2023-07-29T01:52:20;19.00;99.90
60909;DHT22;46780;48.128;-1.704;2023-07-29T01:54:46;19.00;99.90
60909;DHT22;46780;48.128;-1.704;2023-07-29T01:57:13;19.10;99.90
60909;DHT22;46780;48.128;-1.704;2023-07-29T01:59:41;19.10;99.90
60909;DHT22;46780;48.128;-1.704;2023-07-29T02:02:07;19.10;99.90
60909;DHT22;46780;48.128;-1.704;2023-07-29T02:04:34;19.00;99.90
60909;DHT22;46780;48.128;-1.704;2023-07-29T02:07:00;19.00;99.90
60909;DHT22;46780;48.128;-1.704;2023-07-29T02:09:26;19.10;99.90
60909;DHT22;46780;48.128;-1.704;2023-07-29T02:11:53;19.10;99.90
60909;DHT22;46780;48.128;-1.704;2023-07-29T02:14:19;19.00;99.90
60909;DHT22;46780;48.128;-1.704;2023-07-29T02:16:47;19.10;99.90
60909;DHT22;46780;48.128;-1.704;2023-07-29T02:19:14;19.10;99.90
60909;DHT22;46780;48.128;-1.704;2023-07-29T02:21:40;19.10;99.90
60909;DHT22;46780;48.128;-1.704;2023-07-29T02:24:07;19.10;99.90
60909;DHT22;46780;48.128;-1.704;2023-07-29T02:26:33;19.00;99.90
60909;DHT22;46780;48.128;-1.704;2023-07-29T02:29:00;19.00;99.90
60909;DHT22;46780;48.128;-1.704;2023-07-29T02:31:26;19.00;99.90
60909;DHT22;46780;48.128;-1.704;2023-07-29T02:33:54;19.00;99.90
60909;DHT22;46780;48.128;-1.704;2023-07-29T02:36:20;19.00;99.90
60909;DHT22;46780;48.128;-1.704;2023-07-29T02:38:47;19.00;99.90
60909;DHT22;46780;48.128;-1.704;2023-07-29T02:41:13;19.00;99.90
60909;DHT22;46780;48.128;-1.704;2023-07-29T02:43:41;19.00;99.90
60909;DHT22;46780;48.128;-1.704;2023-07-29T02:46:08;19.10;99.90
60909;DHT22;46780;48.128;-1.704;2023-07-29T02:48:34;19.10;99.90
60909;DHT22;46780;48.128;-1.704;2023-07-29T02:51:02;19.00;99.90
60909;DHT22;46780;48.128;-1.704;2023-07-29T02:53:29;19.00;99.90
60909;DHT22;46780;48.128;-1.704;2023-07-29T02:55:55;19.00;99.90
60909;DHT22;46780;48.128;-1.704;2023-07-29T02:58:21;19.00;99.90
60909;DHT22;46780;48.128;-1.704;2023-07-29T03:00:48;19.00;99.90
60909;DHT22;46780;48.128;-1.704;2023-07-29T03:03:14;18.90;99.90
60909;DHT22;46780;48.128;-1.704;2023-07-29T03:05:41;18.90;99.90
60909;DHT22;46780;48.128;-1.704;2023-07-29T03:08:09;18.90;99.90
60909;DHT22;46780;48.128;-1.704;2023-07-29T03:10:35;18.90;99.90
60909;DHT22;46780;48.128;-1.704;2023-07-29T03:13:02;18.90;99.90
60909;DHT22;46780;48.128;-1.704;2023-07-29T03:15:28;18.90;99.90
60909;DHT22;46780;48.128;-1.704;2023-07-29T03:17:55;18.80;99.90
60909;DHT22;46780;48.128;-1.704;2023-07-29T03:20:21;18.90;99.90
60909;DHT22;46780;48.128;-1.704;2023-07-29T03:22:47;18.90;99.90
60909;DHT22;46780;48.128;-1.704;2023-07-29T03:25:15;18.90;99.90
60909;DHT22;46780;48.128;-1.704;2023-07-29T03:27:42;18.90;99.90
60909;DHT22;46780;48.128;-1.704;2023-07-29T03:30:09;18.80;99.90
60909;DHT22;46780;48.128;-1.704;2023-07-29T03:32:40;18.80;99.90
60909;DHT22;46780;48.128;-1.704;2023-07-29T03:35:07;18.80;99.90
60909;DHT22;46780;48.128;-1.704;2023-07-29T03:37:34;18.80;99.90
60909;DHT22;46780;48.128;-1.704;2023-07-29T03:40:00;18.80;99.90
60909;DHT22;46780;48.128;-1.704;2023-07-29T03:42:28;18.80;99.90
60909;DHT22;46780;48.128;-1.704;2023-07-29T03:44:54;18.70;99.90
60909;DHT22;46780;48.128;-1.704;2023-07-29T03:47:21;18.80;99.90
60909;DHT22;46780;48.128;-1.704;2023-07-29T03:49:47;18.80;99.90
60909;DHT22;46780;48.128;-1.704;2023-07-29T03:52:14;18.80;99.90
60909;DHT22;46780;48.128;-1.704;2023-07-29T03:54:40;18.80;99.90
60909;DHT22;46780;48.128;-1.704;2023-07-29T03:57:07;18.80;99.90
60909;DHT22;46780;48.128;-1.704;2023-07-29T03:59:35;18.80;99.90
60909;DHT22;46780;48.128;-1.704;2023-07-29T04:02:01;18.80;99.90
60909;DHT22;46780;48.128;-1.704;2023-07-29T04:04:28;18.90;99.90
60909;DHT22;46780;48.128;-1.704;2023-07-29T04:06:54;18.90;99.90
60909;DHT22;46780;48.128;-1.704;2023-07-29T04:09:20;18.90;99.90
60909;DHT22;46780;48.128;-1.704;2023-07-29T04:11:47;19.00;99.90
60909;DHT22;46780;48.128;-1.704;2023-07-29T04:14:14;19.00;99.90
60909;DHT22;46780;48.128;-1.704;2023-07-29T04:16:41;19.00;99.90
60909;DHT22;46780;48.128;-1.704;2023-07-29T04:19:08;19.00;99.90
60909;DHT22;46780;48.128;-1.704;2023-07-29T04:21:34;19.00;99.90
60909;DHT22;46780;48.128;-1.704;2023-07-29T04:24:01;19.00;99.90
60909;DHT22;46780;48.128;-1.704;2023-07-29T04:26:27;19.00;99.90
60909;DHT22;46780;48.128;-1.704;2023-07-29T04:28:53;19.00;99.90
60909;DHT22;46780;48.128;-1.704;2023-07-29T04:31:20;19.00;99.90
60909;DHT22;46780;48.128;-1.704;2023-07-29T04:33:48;19.00;99.90
60909;DHT22;46780;48.128;-1.704;2023-07-29T04:36:14;19.00;99.90
60909;DHT22;46780;48.128;-1.704;2023-07-29T04:38:41;19.00;99.90
60909;DHT22;46780;48.128;-1.704;2023-07-29T04:41:07;19.00;99.90
60909;DHT22;46780;48.128;-1.704;2023-07-29T04:43:33;19.00;99.90
60909;DHT22;46780;48.128;-1.704;2023-07-29T04:46:00;19.00;99.90
60909;DHT22;46780;48.128;-1.704;2023-07-29T04:48:27;19.00;99.90
60909;DHT22;46780;48.128;-1.704;2023-07-29T04:50:54;19.00;99.90
60909;DHT22;46780;48.128;-1.704;2023-07-29T04:53:21;19.00;99.90
60909;DHT22;46780;48.128;-1.704;2023-07-29T04:55:47;19.00;99.90
60909;DHT22;46780;48.128;-1.704;2023-07-29T04:58:14;19.00;99.90
60909;DHT22;46780;48.128;-1.704;2023-07-29T05:00:40;19.00;99.90
60909;DHT22;46780;48.128;-1.704;2023-07-29T05:03:07;18.90;99.90
60909;DHT22;46780;48.128;-1.704;2023-07-29T05:05:33;19.00;99.90
60909;DHT22;46780;48.128;-1.704;2023-07-29T05:08:01;18.90;99.90
60909;DHT22;46780;48.128;-1.704;2023-07-29T05:10:27;19.00;99.90
60909;DHT22;46780;48.128;-1.704;2023-07-29T05:12:54;19.00;99.90
60909;DHT22;46780;48.128;-1.704;2023-07-29T05:15:20;19.00;99.90
60909;DHT22;46780;48.128;-1.704;2023-07-29T05:17:47;19.00;99.90
60909;DHT22;46780;48.128;-1.704;2023-07-29T05:20:13;19.00;99.90
60909;DHT22;46780;48.128;-1.704;2023-07-29T05:22:40;19.00;99.90
60909;DHT22;46780;48.128;-1.704;2023-07-29T05:25:08;19.10;99.90
60909;DHT22;46780;48.128;-1.704;2023-07-29T05:27:34;19.10;99.90
60909;DHT22;46780;48.128;-1.704;2023-07-29T05:30:01;19.20;99.90
60909;DHT22;46780;48.128;-1.704;2023-07-29T05:32:27;19.10;99.90
60909;DHT22;46780;48.128;-1.704;2023-07-29T05:34:54;19.20;99.90
60909;DHT22;46780;48.128;-1.704;2023-07-29T05:37:20;19.20;99.90
60909;DHT22;46780;48.128;-1.704;2023-07-29T05:39:47;19.20;99.90
60909;DHT22;46780;48.128;-1.704;2023-07-29T05:42:15;19.20;99.90
60909;DHT22;46780;48.128;-1.704;2023-07-29T05:44:41;19.30;99.90
60909;DHT22;46780;48.128;-1.704;2023-07-29T05:47:08;19.30;99.90
60909;DHT22;46780;48.128;-1.704;2023-07-29T05:49:34;19.20;99.90
60909;DHT22;46780;48.128;-1.704;2023-07-29T05:52:01;19.20;99.90
60909;DHT22;46780;48.128;-1.704;2023-07-29T05:54:27;19.20;99.90
60909;DHT22;46780;48.128;-1.704;2023-07-29T05:56:54;19.30;99.90
60909;DHT22;46780;48.128;-1.704;2023-07-29T05:59:21;19.40;99.90
60909;DHT22;46780;48.128;-1.704;2023-07-29T06:01:48;19.40;99.90
60909;DHT22;46780;48.128;-1.704;2023-07-29T06:04:14;19.40;99.90
60909;DHT22;46780;48.128;-1.704;2023-07-29T06:06:41;19.40;99.90
60909;DHT22;46780;48.128;-1.704;2023-07-29T06:09:07;19.50;99.90
60909;DHT22;46780;48.128;-1.704;2023-07-29T06:11:34;19.50;99.90
60909;DHT22;46780;48.128;-1.704;2023-07-29T06:14:00;19.50;99.90
60909;DHT22;46780;48.128;-1.704;2023-07-29T06:16:28;19.60;99.90
60909;DHT22;46780;48.128;-1.704;2023-07-29T06:18:54;19.60;99.90
60909;DHT22;46780;48.128;-1.704;2023-07-29T06:21:21;19.60;99.90
60909;DHT22;46780;48.128;-1.704;2023-07-29T06:23:47;19.50;99.90
60909;DHT22;46780;48.128;-1.704;2023-07-29T06:26:14;19.50;99.90
60909;DHT22;46780;48.128;-1.704;2023-07-29T06:28:40;19.40;99.90
60909;DHT22;46780;48.128;-1.704;2023-07-29T06:31:07;19.40;99.90
60909;DHT22;46780;48.128;-1.704;2023-07-29T06:33:35;19.30;99.90
60909;DHT22;46780;48.128;-1.704;2023-07-29T06:36:01;19.30;99.90
60909;DHT22;46780;48.128;-1.704;2023-07-29T06:38:28;19.30;99.90
60909;DHT22;46780;48.128;-1.704;2023-07-29T06:40:54;19.40;99.90
60909;DHT22;46780;48.128;-1.704;2023-07-29T06:43:20;19.40;99.90
60909;DHT22;46780;48.128;-1.704;2023-07-29T06:45:47;19.40;99.90
60909;DHT22;46780;48.128;-1.704;2023-07-29T06:48:13;19.40;99.90
60909;DHT22;46780;48.128;-1.704;2023-07-29T06:50:41;19.40;99.90
60909;DHT22;46780;48.128;-1.704;2023-07-29T06:53:09;19.60;99.90
60909;DHT22;46780;48.128;-1.704;2023-07-29T06:55:36;19.80;99.90
60909;DHT22;46780;48.128;-1.704;2023-07-29T06:58:02;19.80;99.90
60909;DHT22;46780;48.128;-1.704;2023-07-29T07:00:28;19.80;99.90
60909;DHT22;46780;48.128;-1.704;2023-07-29T07:02:55;19.80;99.90
60909;DHT22;46780;48.128;-1.704;2023-07-29T07:05:21;19.90;99.90
60909;DHT22;46780;48.128;-1.704;2023-07-29T07:07:49;20.10;99.90
60909;DHT22;46780;48.128;-1.704;2023-07-29T07:10:16;20.20;99.90
60909;DHT22;46780;48.128;-1.704;2023-07-29T07:12:42;20.40;99.90
60909;DHT22;46780;48.128;-1.704;2023-07-29T07:15:09;20.40;99.90
60909;DHT22;46780;48.128;-1.704;2023-07-29T07:17:35;20.40;99.90
60909;DHT22;46780;48.128;-1.704;2023-07-29T07:20:02;20.50;99.90
60909;DHT22;46780;48.128;-1.704;2023-07-29T07:22:28;20.40;99.90
60909;DHT22;46780;48.128;-1.704;2023-07-29T07:24:56;20.30;99.90
60909;DHT22;46780;48.128;-1.704;2023-07-29T07:27:23;20.40;99.90
60909;DHT22;46780;48.128;-1.704;2023-07-29T07:29:49;20.50;99.90
60909;DHT22;46780;48.128;-1.704;2023-07-29T07:32:16;20.60;99.90
60909;DHT22;46780;48.128;-1.704;2023-07-29T07:34:42;20.60;99.90
60909;DHT22;46780;48.128;-1.704;2023-07-29T07:37:09;20.60;99.90
60909;DHT22;46780;48.128;-1.704;2023-07-29T07:39:35;20.60;99.90
60909;DHT22;46780;48.128;-1.704;2023-07-29T07:42:03;20.60;99.90
60909;DHT22;46780;48.128;-1.704;2023-07-29T07:44:30;20.70;99.90
60909;DHT22;46780;48.128;-1.704;2023-07-29T07:46:56;20.70;99.90
60909;DHT22;46780;48.128;-1.704;2023-07-29T07:49:23;20.70;99.90
60909;DHT22;46780;48.128;-1.704;2023-07-29T07:51:49;20.70;99.90
60909;DHT22;46780;48.128;-1.704;2023-07-29T07:54:16;20.70;99.90
60909;DHT22;46780;48.128;-1.704;2023-07-29T07:56:43;20.60;99.90
60909;DHT22;46780;48.128;-1.704;2023-07-29T07:59:10;20.60;99.90
60909;DHT22;46780;48.128;-1.704;2023-07-29T08:01:38;20.70;99.90
60909;DHT22;46780;48.128;-1.704;2023-07-29T08:04:05;20.90;99.90
60909;DHT22;46780;48.128;-1.704;2023-07-29T08:06:32;20.90;99.90
60909;DHT22;46780;48.128;-1.704;2023-07-29T08:08:59;21.10;99.90
60909;DHT22;46780;48.128;-1.704;2023-07-29T08:11:25;21.30;99.90
60909;DHT22;46780;48.128;-1.704;2023-07-29T08:13:52;21.30;99.90
60909;DHT22;46780;48.128;-1.704;2023-07-29T08:16:20;21.30;99.90
60909;DHT22;46780;48.128;-1.704;2023-07-29T08:18:46;21.40;99.90
60909;DHT22;46780;48.128;-1.704;2023-07-29T08:21:13;21.50;99.90
60909;DHT22;46780;48.128;-1.704;2023-07-29T08:23:39;21.80;99.90
60909;DHT22;46780;48.128;-1.704;2023-07-29T08:26:06;22.00;99.90
60909;DHT22;46780;48.128;-1.704;2023-07-29T08:28:34;22.30;99.90
60909;DHT22;46780;48.128;-1.704;2023-07-29T08:31:01;22.50;99.90
60909;DHT22;46780;48.128;-1.704;2023-07-29T08:33:29;22.50;99.70
60909;DHT22;46780;48.128;-1.704;2023-07-29T08:35:56;22.60;98.90
60909;DHT22;46780;48.128;-1.704;2023-07-29T08:38:23;22.80;98.90
60909;DHT22;46780;48.128;-1.704;2023-07-29T08:40:52;22.80;98.60
60909;DHT22;46780;48.128;-1.704;2023-07-29T08:43:29;22.80;98.60
60909;DHT22;46780;48.128;-1.704;2023-07-29T08:45:57;22.70;99.50
60909;DHT22;46780;48.128;-1.704;2023-07-29T08:48:32;22.50;98.90
60909;DHT22;46780;48.128;-1.704;2023-07-29T08:51:00;22.40;97.30
60909;DHT22;46780;48.128;-1.704;2023-07-29T08:53:27;22.40;96.10
60909;DHT22;46780;48.128;-1.704;2023-07-29T08:55:54;22.50;95.00
60909;DHT22;46780;48.128;-1.704;2023-07-29T08:58:21;22.50;93.50
60909;DHT22;46780;48.128;-1.704;2023-07-29T09:00:48;22.50;94.50
60909;DHT22;46780;48.128;-1.704;2023-07-29T09:03:15;22.60;93.40
60909;DHT22;46780;48.128;-1.704;2023-07-29T09:05:43;22.60;93.60
60909;DHT22;46780;48.128;-1.704;2023-07-29T09:08:09;22.90;93.70
60909;DHT22;46780;48.128;-1.704;2023-07-29T09:10:36;23.30;93.10
60909;DHT22;46780;48.128;-1.704;2023-07-29T09:13:03;23.90;91.40
60909;DHT22;46780;48.128;-1.704;2023-07-29T09:15:32;25.00;85.80
60909;DHT22;46780;48.128;-1.704;2023-07-29T09:17:58;26.00;74.20
60909;DHT22;46780;48.128;-1.704;2023-07-29T09:20:25;27.20;64.30
60909;DHT22;46780;48.128;-1.704;2023-07-29T09:22:55;28.90;56.90
60909;DHT22;46780;48.128;-1.704;2023-07-29T09:25:25;30.00;48.70
60909;DHT22;46780;48.128;-1.704;2023-07-29T09:27:53;31.00;45.80
60909;DHT22;46780;48.128;-1.704;2023-07-29T09:30:24;30.80;43.50
60909;DHT22;46780;48.128;-1.704;2023-07-29T09:32:55;31.50;42.70
60909;DHT22;46780;48.128;-1.704;2023-07-29T09:35:21;30.90;43.20
60909;DHT22;46780;48.128;-1.704;2023-07-29T09:37:48;30.50;43.50
60909;DHT22;46780;48.128;-1.704;2023-07-29T09:40:16;30.10;45.00
60909;DHT22;46780;48.128;-1.704;2023-07-29T09:42:48;31.40;42.40
60909;DHT22;46780;48.128;-1.704;2023-07-29T09:45:19;33.30;37.20
60909;DHT22;46780;48.128;-1.704;2023-07-29T09:47:47;34.70;31.80
60909;DHT22;46780;48.128;-1.704;2023-07-29T09:50:13;35.20;29.80
60909;DHT22;46780;48.128;-1.704;2023-07-29T09:52:40;35.60;29.10
60909;DHT22;46780;48.128;-1.704;2023-07-29T09:55:08;35.60;28.20
60909;DHT22;46780;48.128;-1.704;2023-07-29T09:57:36;35.60;28.20
60909;DHT22;46780;48.128;-1.704;2023-07-29T10:00:04;35.70;28.60
60909;DHT22;46780;48.128;-1.704;2023-07-29T10:02:31;36.50;28.00
60909;DHT22;46780;48.128;-1.704;2023-07-29T10:04:58;37.60;27.40
60909;DHT22;46780;48.128;-1.704;2023-07-29T10:07:25;37.70;25.20
60909;DHT22;46780;48.128;-1.704;2023-07-29T10:09:52;37.10;26.10
60909;DHT22;46780;48.128;-1.704;2023-07-29T10:12:20;36.70;26.50
60909;DHT22;46780;48.128;-1.704;2023-07-29T10:14:49;36.10;27.50
60909;DHT22;46780;48.128;-1.704;2023-07-29T10:17:16;35.40;28.10
60909;DHT22;46780;48.128;-1.704;2023-07-29T10:19:44;34.90;28.30
60909;DHT22;46780;48.128;-1.704;2023-07-29T10:22:13;35.30;27.10
60909;DHT22;46780;48.128;-1.704;2023-07-29T10:24:42;36.30;27.10
60909;DHT22;46780;48.128;-1.704;2023-07-29T10:27:11;37.30;26.60
60909;DHT22;46780;48.128;-1.704;2023-07-29T10:29:39;38.90;24.70
60909;DHT22;46780;48.128;-1.704;2023-07-29T10:32:11;39.10;23.50
60909;DHT22;46780;48.128;-1.704;2023-07-29T10:34:39;39.20;23.40
60909;DHT22;46780;48.128;-1.704;2023-07-29T10:37:07;39.00;23.20
60909;DHT22;46780;48.128;-1.704;2023-07-29T10:39:38;38.00;23.90
60909;DHT22;46780;48.128;-1.704;2023-07-29T10:42:06;35.40;26.60
60909;DHT22;46780;48.128;-1.704;2023-07-29T10:44:49;35.90;26.70
60909;DHT22;46780;48.128;-1.704;2023-07-29T10:47:18;38.00;25.40
60909;DHT22;46780;48.128;-1.704;2023-07-29T10:49:46;39.70;23.70
60909;DHT22;46780;48.128;-1.704;2023-07-29T10:52:13;39.90;22.80
60909;DHT22;46780;48.128;-1.704;2023-07-29T10:54:43;39.60;22.40
60909;DHT22;46780;48.128;-1.704;2023-07-29T10:57:12;39.60;22.70
60909;DHT22;46780;48.128;-1.704;2023-07-29T10:59:39;39.10;23.50
60909;DHT22;46780;48.128;-1.704;2023-07-29T11:02:14;37.20;24.90
60909;DHT22;46780;48.128;-1.704;2023-07-29T11:04:50;37.80;24.20
60909;DHT22;46780;48.128;-1.704;2023-07-29T11:07:21;37.20;24.50
60909;DHT22;46780;48.128;-1.704;2023-07-29T11:09:53;37.50;24.70
60909;DHT22;46780;48.128;-1.704;2023-07-29T11:12:36;37.30;25.10
60909;DHT22;46780;48.128;-1.704;2023-07-29T11:15:11;35.30;26.80
60909;DHT22;46780;48.128;-1.704;2023-07-29T11:17:40;34.40;28.20
60909;DHT22;46780;48.128;-1.704;2023-07-29T11:20:09;33.60;29.60
60909;DHT22;46780;48.128;-1.704;2023-07-29T11:22:36;35.30;27.10
60909;DHT22;46780;48.128;-1.704;2023-07-29T11:25:03;36.10;26.00
60909;DHT22;46780;48.128;-1.704;2023-07-29T11:27:30;36.30;26.20
60909;DHT22;46780;48.128;-1.704;2023-07-29T11:29:57;35.40;26.80
60909;DHT22;46780;48.128;-1.704;2023-07-29T11:32:24;34.50;27.90
60909;DHT22;46780;48.128;-1.704;2023-07-29T11:34:51;34.00;28.70
60909;DHT22;46780;48.128;-1.704;2023-07-29T11:37:19;33.30;29.40
60909;DHT22;46780;48.128;-1.704;2023-07-29T11:39:45;32.10;30.80
60909;DHT22;46780;48.128;-1.704;2023-07-29T11:42:12;30.80;33.10
60909;DHT22;46780;48.128;-1.704;2023-07-29T11:44:39;29.50;35.00
60909;DHT22;46780;48.128;-1.704;2023-07-29T11:47:06;28.40;37.10
60909;DHT22;46780;48.128;-1.704;2023-07-29T11:49:33;28.30;39.30
60909;DHT22;46780;48.128;-1.704;2023-07-29T11:51:59;28.80;38.10
60909;DHT22;46780;48.128;-1.704;2023-07-29T11:54:27;28.30;38.20
60909;DHT22;46780;48.128;-1.704;2023-07-29T11:56:55;28.00;40.00
60909;DHT22;46780;48.128;-1.704;2023-07-29T11:59:21;28.70;40.20
60909;DHT22;46780;48.128;-1.704;2023-07-29T12:01:48;29.40;38.80
60909;DHT22;46780;48.128;-1.704;2023-07-29T12:04:15;29.00;38.00
60909;DHT22;46780;48.128;-1.704;2023-07-29T12:06:42;28.50;39.70
60909;DHT22;46780;48.128;-1.704;2023-07-29T12:09:09;28.10;41.00
60909;DHT22;46780;48.128;-1.704;2023-07-29T12:11:37;28.10;41.00
60909;DHT22;46780;48.128;-1.704;2023-07-29T12:14:03;28.30;40.90
60909;DHT22;46780;48.128;-1.704;2023-07-29T12:16:40;28.20;40.00
60909;DHT22;46780;48.128;-1.704;2023-07-29T12:19:06;27.80;41.10
60909;DHT22;46780;48.128;-1.704;2023-07-29T12:21:33;27.50;42.40
60909;DHT22;46780;48.128;-1.704;2023-07-29T12:23:59;27.20;43.40
60909;DHT22;46780;48.128;-1.704;2023-07-29T12:26:27;27.00;44.10
60909;DHT22;46780;48.128;-1.704;2023-07-29T12:28:55;27.00;44.70
60909;DHT22;46780;48.128;-1.704;2023-07-29T12:31:30;27.40;44.30
60909;DHT22;46780;48.128;-1.704;2023-07-29T12:33:57;27.50;43.70
60909;DHT22;46780;48.128;-1.704;2023-07-29T12:36:28;27.40;42.90
60909;DHT22;46780;48.128;-1.704;2023-07-29T12:39:06;27.20;43.80
60909;DHT22;46780;48.128;-1.704;2023-07-29T12:41:32;26.80;45.10
60909;DHT22;46780;48.128;-1.704;2023-07-29T12:44:00;26.60;46.10
60909;DHT22;46780;48.128;-1.704;2023-07-29T12:46:29;26.40;47.50
60909;DHT22;46780;48.128;-1.704;2023-07-29T12:48:55;26.10;49.20
60909;DHT22;46780;48.128;-1.704;2023-07-29T12:51:22;25.90;50.50
60909;DHT22;46780;48.128;-1.704;2023-07-29T12:53:48;25.70;52.10
60909;DHT22;46780;48.128;-1.704;2023-07-29T12:56:15;25.70;52.10
60909;DHT22;46780;48.128;-1.704;2023-07-29T12:58:41;25.70;51.70
60909;DHT22;46780;48.128;-1.704;2023-07-29T13:01:09;25.90;51.30
60909;DHT22;46780;48.128;-1.704;2023-07-29T13:03:35;25.80;50.70
60909;DHT22;46780;48.128;-1.704;2023-07-29T13:06:02;25.80;50.10
60909;DHT22;46780;48.128;-1.704;2023-07-29T13:08:30;25.60;51.30
60909;DHT22;46780;48.128;-1.704;2023-07-29T13:10:56;25.50;52.10
60909;DHT22;46780;48.128;-1.704;2023-07-29T13:13:23;25.30;52.70
60909;DHT22;46780;48.128;-1.704;2023-07-29T13:15:49;25.00;54.20
60909;DHT22;46780;48.128;-1.704;2023-07-29T13:18:17;24.80;55.40
60909;DHT22;46780;48.128;-1.704;2023-07-29T13:20:43;24.70;56.80
60909;DHT22;46780;48.128;-1.704;2023-07-29T13:23:10;24.70;57.80
60909;DHT22;46780;48.128;-1.704;2023-07-29T13:25:36;24.90;57.60
60909;DHT22;46780;48.128;-1.704;2023-07-29T13:28:03;25.10;57.10
60909;DHT22;46780;48.128;-1.704;2023-07-29T13:30:31;25.20;56.50
60909;DHT22;46780;48.128;-1.704;2023-07-29T13:32:57;25.10;55.80
60909;DHT22;46780;48.128;-1.704;2023-07-29T13:35:25;24.90;56.20
60909;DHT22;46780;48.128;-1.704;2023-07-29T13:37:51;24.80;57.90
60909;DHT22;46780;48.128;-1.704;2023-07-29T13:40:18;24.70;58.70
60909;DHT22;46780;48.128;-1.704;2023-07-29T13:42:44;24.90;58.20
60909;DHT22;46780;48.128;-1.704;2023-07-29T13:45:11;25.20;56.70
60909;DHT22;46780;48.128;-1.704;2023-07-29T13:47:37;25.60;55.60
60909;DHT22;46780;48.128;-1.704;2023-07-29T13:50:05;25.80;54.00
60909;DHT22;46780;48.128;-1.704;2023-07-29T13:52:33;26.00;53.20
60909;DHT22;46780;48.128;-1.704;2023-07-29T13:54:59;26.40;52.60
60909;DHT22;46780;48.128;-1.704;2023-07-29T13:57:26;26.50;52.00
60909;DHT22;46780;48.128;-1.704;2023-07-29T13:59:52;26.50;50.60
60909;DHT22;46780;48.128;-1.704;2023-07-29T14:02:18;26.20;50.70
60909;DHT22;46780;48.128;-1.704;2023-07-29T14:04:45;25.90;52.20
60909;DHT22;46780;48.128;-1.704;2023-07-29T14:07:11;25.90;52.60
60909;DHT22;46780;48.128;-1.704;2023-07-29T14:09:39;25.90;53.30
60909;DHT22;46780;48.128;-1.704;2023-07-29T14:12:06;25.90;54.70
60909;DHT22;46780;48.128;-1.704;2023-07-29T14:14:33;26.00;53.30
60909;DHT22;46780;48.128;-1.704;2023-07-29T14:16:59;26.00;52.60
60909;DHT22;46780;48.128;-1.704;2023-07-29T14:19:25;25.90;54.30
60909;DHT22;46780;48.128;-1.704;2023-07-29T14:21:52;25.90;54.90
60909;DHT22;46780;48.128;-1.704;2023-07-29T14:24:18;25.80;54.60
60909;DHT22;46780;48.128;-1.704;2023-07-29T14:26:46;25.70;56.30
60909;DHT22;46780;48.128;-1.704;2023-07-29T14:29:12;25.70;57.80
60909;DHT22;46780;48.128;-1.704;2023-07-29T14:31:39;25.90;58.00
60909;DHT22;46780;48.128;-1.704;2023-07-29T14:34:05;26.00;56.50
60909;DHT22;46780;48.128;-1.704;2023-07-29T14:36:32;26.00;55.70
60909;DHT22;46780;48.128;-1.704;2023-07-29T14:38:58;25.90;56.00
60909;DHT22;46780;48.128;-1.704;2023-07-29T14:41:25;25.90;56.40
60909;DHT22;46780;48.128;-1.704;2023-07-29T14:43:53;25.80;57.00
60909;DHT22;46780;48.128;-1.704;2023-07-29T14:46:19;25.60;57.70
60909;DHT22;46780;48.128;-1.704;2023-07-29T14:48:46;25.30;59.10
60909;DHT22;46780;48.128;-1.704;2023-07-29T14:51:12;25.20;59.00
60909;DHT22;46780;48.128;-1.704;2023-07-29T14:53:39;25.10;58.90
60909;DHT22;46780;48.128;-1.704;2023-07-29T14:56:05;25.10;60.90
60909;DHT22;46780;48.128;-1.704;2023-07-29T14:58:32;25.00;61.20
60909;DHT22;46780;48.128;-1.704;2023-07-29T15:00:59;25.10;62.60
60909;DHT22;46780;48.128;-1.704;2023-07-29T15:03:26;25.30;62.00
60909;DHT22;46780;48.128;-1.704;2023-07-29T15:05:52;25.20;62.30
60909;DHT22;46780;48.128;-1.704;2023-07-29T15:08:19;25.20;62.50
60909;DHT22;46780;48.128;-1.704;2023-07-29T15:10:45;25.30;61.70
60909;DHT22;46780;48.128;-1.704;2023-07-29T15:13:12;25.30;58.50
60909;DHT22;46780;48.128;-1.704;2023-07-29T15:15:40;25.30;59.10